createdAt,value
2022-10-17T00:03:06.113Z,571.59003
2022-10-17T00:18:08.426Z,466.12363
2022-10-17T00:33:10.765Z,314.51575
2022-10-17T00:48:13.063Z,150.66623
2022-10-17T01:03:15.367Z,41.43321
2022-10-17T01:18:17.810Z,4.70832
2022-10-17T01:33:20.196Z,0
2022-10-17T01:48:22.530Z,0
2022-10-17T02:03:24.817Z,0
2022-10-17T02:18:27.067Z,0
2022-10-17T02:33:29.479Z,0
2022-10-17T02:48:31.810Z,0
2022-10-17T03:03:34.131Z,0
2022-10-17T03:18:36.455Z,0
2022-10-17T03:33:38.769Z,0
2022-10-17T03:48:41.071Z,0
2022-10-17T04:03:43.558Z,0
2022-10-17T04:18:45.900Z,0
2022-10-17T04:33:48.177Z,0
2022-10-17T04:48:50.780Z,0
2022-10-17T05:03:53.110Z,0
2022-10-17T05:18:55.375Z,0
2022-10-17T05:33:57.670Z,0
2022-10-17T05:48:59.945Z,0
2022-10-17T06:04:02.249Z,0
2022-10-17T06:19:04.566Z,0
2022-10-17T06:34:06.857Z,0
2022-10-17T06:49:09.160Z,0
2022-10-17T07:04:11.478Z,0
2022-10-17T07:19:13.774Z,0
2022-10-17T07:34:16.125Z,0
2022-10-17T07:49:18.473Z,0
2022-10-17T08:04:20.764Z,0
2022-10-17T08:19:23.141Z,0
2022-10-17T08:34:25.418Z,0
2022-10-17T08:49:27.751Z,0
2022-10-17T09:19:32.493Z,0
2022-10-17T09:34:34.775Z,0
2022-10-17T09:49:37.012Z,0
2022-10-17T10:04:59.786Z,0
2022-10-17T10:20:05.480Z,0
2022-10-17T10:35:07.764Z,0
2022-10-17T10:50:10.058Z,0
2022-10-17T11:05:12.393Z,0
2022-10-17T11:20:14.716Z,0
2022-10-17T11:35:17.220Z,0
2022-10-17T12:05:51.866Z,0
2022-10-17T12:20:54.363Z,0
2022-10-17T12:35:56.664Z,0
2022-10-17T12:51:17.665Z,0
2022-10-17T13:06:33.564Z,0
2022-10-17T13:21:35.898Z,0
2022-10-17T13:36:38.201Z,0
2022-10-17T13:51:40.526Z,3.76666
2022-10-17T14:06:44.983Z,40.49155
2022-10-17T14:21:50.443Z,147.84123
2022-10-17T14:36:52.743Z,270.25754
2022-10-17T14:51:57.002Z,306.04077
2022-10-17T15:07:09.576Z,2433.25952
2022-10-17T15:22:11.902Z,1099.8634
2022-10-17T15:37:14.153Z,8017.32666
2022-10-17T15:52:16.486Z,6072.79053
2022-10-17T16:07:18.825Z,4664.06152
2022-10-17T16:22:21.126Z,35722.96094
2022-10-17T16:37:23.642Z,28767.83203
2022-10-17T16:52:25.941Z,10761.33496
2022-10-17T17:07:28.600Z,23999.24609
2022-10-17T17:22:31.031Z,19395.45117
2022-10-17T17:37:33.501Z,4384.38721
2022-10-17T17:52:36.136Z,4976.69385
2022-10-17T18:07:38.398Z,5076.51025
2022-10-17T18:22:40.676Z,4848.62744
2022-10-17T18:37:43.029Z,5271.43457
2022-10-17T18:52:45.325Z,5411.74268
2022-10-17T19:07:47.615Z,5347.70947
2022-10-17T19:22:50.037Z,5213.99316
2022-10-17T19:37:52.422Z,5147.13477
2022-10-17T19:52:54.681Z,4736.56934
2022-10-17T20:07:57.007Z,5034.13525
2022-10-17T20:22:59.314Z,5330.75928
2022-10-17T20:38:01.619Z,5515.32568
2022-10-17T20:53:31.299Z,5541.69238
2022-10-17T21:08:37.761Z,5420.21729
2022-10-17T21:23:40.058Z,5570.88379
2022-10-17T21:38:42.331Z,5271.43457
2022-10-17T21:53:44.625Z,4875.93555
2022-10-17T22:08:47.071Z,4517.16162
2022-10-17T22:23:49.335Z,4253.49609
2022-10-17T22:38:51.653Z,3959.69678
2022-10-17T22:53:53.930Z,3622.58105
2022-10-17T23:08:56.183Z,3339.14038
2022-10-17T23:23:58.520Z,772.16443
2022-10-17T23:39:00.998Z,674.23138
2022-10-17T23:54:03.238Z,565.94
